sensor_id;sensor_type;location;lat;lon;timestamp;P1;durP1;ratioP1;P2;durP2;ratioP2
34814;SDS011;21030;53.912;15.214;2022-07-22T00:00:52;4.32;;;2.35;;
34814;SDS011;21030;53.912;15.214;2022-07-22T00:03:19;4.45;;;2.60;;
34814;SDS011;21030;53.912;15.214;2022-07-22T00:05:46;3.67;;;1.63;;
34814;SDS011;21030;53.912;15.214;2022-07-22T00:08:13;3.58;;;1.65;;
34814;SDS011;21030;53.912;15.214;2022-07-22T00:10:40;2.85;;;1.85;;
34814;SDS011;21030;53.912;15.214;2022-07-22T00:13:07;4.68;;;2.60;;
34814;SDS011;21030;53.912;15.214;2022-07-22T00:15:34;5.68;;;2.25;;
34814;SDS011;21030;53.912;15.214;2022-07-22T00:18:02;4.68;;;2.38;;
34814;SDS011;21030;53.912;15.214;2022-07-22T00:20:29;4.72;;;2.35;;
34814;SDS011;21030;53.912;15.214;2022-07-22T00:22:56;3.42;;;1.67;;
34814;SDS011;21030;53.912;15.214;2022-07-22T00:25:23;5.70;;;2.53;;
34814;SDS011;21030;53.912;15.214;2022-07-22T00:27:50;4.63;;;2.63;;
34814;SDS011;21030;53.912;15.214;2022-07-22T00:30:17;5.07;;;2.38;;
34814;SDS011;21030;53.912;15.214;2022-07-22T00:32:44;4.03;;;1.95;;
34814;SDS011;21030;53.912;15.214;2022-07-22T00:35:11;2.65;;;1.77;;
34814;SDS011;21030;53.912;15.214;2022-07-22T00:37:38;10.80;;;2.42;;
34814;SDS011;21030;53.912;15.214;2022-07-22T00:40:05;5.45;;;3.55;;
34814;SDS011;21030;53.912;15.214;2022-07-22T00:42:33;5.95;;;2.95;;
34814;SDS011;21030;53.912;15.214;2022-07-22T00:45:01;4.97;;;2.40;;
34814;SDS011;21030;53.912;15.214;2022-07-22T00:47:30;4.57;;;2.70;;
34814;SDS011;21030;53.912;15.214;2022-07-22T00:49:57;6.35;;;1.83;;
34814;SDS011;21030;53.912;15.214;2022-07-22T00:52:24;2.60;;;2.03;;
34814;SDS011;21030;53.912;15.214;2022-07-22T00:54:53;5.22;;;2.70;;
34814;SDS011;21030;53.912;15.214;2022-07-22T00:57:22;5.38;;;2.38;;
34814;SDS011;21030;53.912;15.214;2022-07-22T00:59:49;5.45;;;2.38;;
34814;SDS011;21030;53.912;15.214;2022-07-22T01:02:16;6.75;;;2.45;;
34814;SDS011;21030;53.912;15.214;2022-07-22T01:04:43;4.47;;;2.53;;
34814;SDS011;21030;53.912;15.214;2022-07-22T01:07:10;4.50;;;2.90;;
34814;SDS011;21030;53.912;15.214;2022-07-22T01:09:37;5.18;;;2.50;;
34814;SDS011;21030;53.912;15.214;2022-07-22T01:12:08;5.55;;;2.35;;
34814;SDS011;21030;53.912;15.214;2022-07-22T01:14:35;3.95;;;2.00;;
34814;SDS011;21030;53.912;15.214;2022-07-22T01:17:02;5.28;;;2.83;;
34814;SDS011;21030;53.912;15.214;2022-07-22T01:19:30;5.78;;;2.92;;
34814;SDS011;21030;53.912;15.214;2022-07-22T01:21:57;9.93;;;3.63;;
34814;SDS011;21030;53.912;15.214;2022-07-22T01:24:24;3.33;;;2.33;;
34814;SDS011;21030;53.912;15.214;2022-07-22T01:26:51;7.65;;;3.55;;
34814;SDS011;21030;53.912;15.214;2022-07-22T01:29:18;6.97;;;2.50;;
34814;SDS011;21030;53.912;15.214;2022-07-22T01:31:45;5.95;;;3.22;;
34814;SDS011;21030;53.912;15.214;2022-07-22T01:34:12;6.95;;;2.60;;
34814;SDS011;21030;53.912;15.214;2022-07-22T01:36:39;5.45;;;2.80;;
34814;SDS011;21030;53.912;15.214;2022-07-22T01:39:06;5.15;;;3.70;;
34814;SDS011;21030;53.912;15.214;2022-07-22T01:41:33;5.43;;;2.75;;
34814;SDS011;21030;53.912;15.214;2022-07-22T01:44:00;5.45;;;2.75;;
34814;SDS011;21030;53.912;15.214;2022-07-22T01:46:27;5.28;;;2.20;;
34814;SDS011;21030;53.912;15.214;2022-07-22T01:48:54;7.47;;;3.50;;
34814;SDS011;21030;53.912;15.214;2022-07-22T01:51:22;4.53;;;2.65;;
34814;SDS011;21030;53.912;15.214;2022-07-22T01:53:49;5.43;;;2.63;;
34814;SDS011;21030;53.912;15.214;2022-07-22T01:56:16;7.38;;;3.05;;
34814;SDS011;21030;53.912;15.214;2022-07-22T01:58:43;7.82;;;2.55;;
34814;SDS011;21030;53.912;15.214;2022-07-22T02:01:10;11.65;;;3.35;;
34814;SDS011;21030;53.912;15.214;2022-07-22T02:03:37;6.00;;;3.10;;
34814;SDS011;21030;53.912;15.214;2022-07-22T02:06:04;5.07;;;2.75;;
34814;SDS011;21030;53.912;15.214;2022-07-22T02:08:32;5.13;;;2.67;;
34814;SDS011;21030;53.912;15.214;2022-07-22T02:11:00;7.50;;;3.08;;
34814;SDS011;21030;53.912;15.214;2022-07-22T02:13:27;6.20;;;3.45;;
34814;SDS011;21030;53.912;15.214;2022-07-22T02:15:54;6.93;;;4.28;;
34814;SDS011;21030;53.912;15.214;2022-07-22T02:18:21;4.60;;;2.20;;
34814;SDS011;21030;53.912;15.214;2022-07-22T02:20:48;5.68;;;3.20;;
34814;SDS011;21030;53.912;15.214;2022-07-22T02:23:15;8.20;;;2.95;;
34814;SDS011;21030;53.912;15.214;2022-07-22T02:25:42;8.10;;;3.67;;
34814;SDS011;21030;53.912;15.214;2022-07-22T02:28:09;5.82;;;2.40;;
34814;SDS011;21030;53.912;15.214;2022-07-22T02:30:37;5.07;;;2.78;;
34814;SDS011;21030;53.912;15.214;2022-07-22T02:33:04;27.60;;;3.97;;
34814;SDS011;21030;53.912;15.214;2022-07-22T02:35:32;4.45;;;3.10;;
34814;SDS011;21030;53.912;15.214;2022-07-22T02:37:59;6.30;;;3.97;;
34814;SDS011;21030;53.912;15.214;2022-07-22T02:40:27;7.38;;;2.90;;
34814;SDS011;21030;53.912;15.214;2022-07-22T02:42:55;5.32;;;2.70;;
34814;SDS011;21030;53.912;15.214;2022-07-22T02:45:22;4.68;;;2.78;;
34814;SDS011;21030;53.912;15.214;2022-07-22T02:47:53;25.05;;;4.25;;
34814;SDS011;21030;53.912;15.214;2022-07-22T02:50:22;5.97;;;2.22;;
34814;SDS011;21030;53.912;15.214;2022-07-22T02:52:50;10.57;;;2.95;;
34814;SDS011;21030;53.912;15.214;2022-07-22T02:55:17;6.07;;;3.13;;
34814;SDS011;21030;53.912;15.214;2022-07-22T02:57:44;6.88;;;4.03;;
34814;SDS011;21030;53.912;15.214;2022-07-22T03:00:12;6.70;;;2.80;;
34814;SDS011;21030;53.912;15.214;2022-07-22T03:02:40;5.05;;;2.60;;
34814;SDS011;21030;53.912;15.214;2022-07-22T03:05:08;3.55;;;2.28;;
34814;SDS011;21030;53.912;15.214;2022-07-22T03:07:35;7.45;;;3.22;;
34814;SDS011;21030;53.912;15.214;2022-07-22T03:10:03;6.47;;;2.78;;
34814;SDS011;21030;53.912;15.214;2022-07-22T03:12:30;6.43;;;3.42;;
34814;SDS011;21030;53.912;15.214;2022-07-22T03:14:59;5.18;;;3.15;;
34814;SDS011;21030;53.912;15.214;2022-07-22T03:17:26;8.70;;;4.53;;
34814;SDS011;21030;53.912;15.214;2022-07-22T03:19:53;6.70;;;3.00;;
34814;SDS011;21030;53.912;15.214;2022-07-22T03:22:20;5.65;;;3.05;;
34814;SDS011;21030;53.912;15.214;2022-07-22T03:24:47;5.15;;;1.98;;
34814;SDS011;21030;53.912;15.214;2022-07-22T03:27:13;4.30;;;2.72;;
34814;SDS011;21030;53.912;15.214;2022-07-22T03:29:40;8.68;;;2.20;;
34814;SDS011;21030;53.912;15.214;2022-07-22T03:32:07;11.48;;;3.35;;
34814;SDS011;21030;53.912;15.214;2022-07-22T03:34:34;7.35;;;3.72;;
34814;SDS011;21030;53.912;15.214;2022-07-22T03:37:01;6.72;;;2.95;;
34814;SDS011;21030;53.912;15.214;2022-07-22T03:39:28;5.30;;;2.95;;
34814;SDS011;21030;53.912;15.214;2022-07-22T03:41:57;6.80;;;3.17;;
34814;SDS011;21030;53.912;15.214;2022-07-22T03:44:24;7.70;;;2.50;;
34814;SDS011;21030;53.912;15.214;2022-07-22T03:46:51;6.13;;;3.47;;
34814;SDS011;21030;53.912;15.214;2022-07-22T03:49:18;9.30;;;4.22;;
34814;SDS011;21030;53.912;15.214;2022-07-22T03:51:46;4.68;;;2.90;;
34814;SDS011;21030;53.912;15.214;2022-07-22T03:54:13;7.40;;;3.33;;
34814;SDS011;21030;53.912;15.214;2022-07-22T03:56:40;5.68;;;2.92;;
34814;SDS011;21030;53.912;15.214;2022-07-22T03:59:07;13.07;;;4.45;;
34814;SDS011;21030;53.912;15.214;2022-07-22T04:01:34;11.65;;;3.80;;
34814;SDS011;21030;53.912;15.214;2022-07-22T04:04:01;7.63;;;3.33;;
34814;SDS011;21030;53.912;15.214;2022-07-22T04:06:30;2.97;;;1.98;;
34814;SDS011;21030;53.912;15.214;2022-07-22T04:08:57;8.07;;;3.80;;
34814;SDS011;21030;53.912;15.214;2022-07-22T04:11:26;6.65;;;3.92;;
34814;SDS011;21030;53.912;15.214;2022-07-22T04:13:53;22.80;;;5.22;;
34814;SDS011;21030;53.912;15.214;2022-07-22T04:16:20;4.85;;;3.08;;
34814;SDS011;21030;53.912;15.214;2022-07-22T04:18:47;4.68;;;2.42;;
34814;SDS011;21030;53.912;15.214;2022-07-22T04:21:14;4.07;;;2.63;;
34814;SDS011;21030;53.912;15.214;2022-07-22T04:23:41;5.40;;;2.95;;
34814;SDS011;21030;53.912;15.214;2022-07-22T04:26:08;8.80;;;3.67;;
34814;SDS011;21030;53.912;15.214;2022-07-22T04:28:35;5.95;;;3.63;;
34814;SDS011;21030;53.912;15.214;2022-07-22T04:31:02;5.28;;;2.70;;
34814;SDS011;21030;53.912;15.214;2022-07-22T04:33:30;4.07;;;3.13;;
34814;SDS011;21030;53.912;15.214;2022-07-22T04:35:57;4.97;;;2.72;;
34814;SDS011;21030;53.912;15.214;2022-07-22T04:38:25;5.22;;;2.95;;
34814;SDS011;21030;53.912;15.214;2022-07-22T04:40:52;11.30;;;3.25;;
34814;SDS011;21030;53.912;15.214;2022-07-22T04:43:20;2.85;;;2.17;;
34814;SDS011;21030;53.912;15.214;2022-07-22T04:45:47;4.78;;;2.40;;
34814;SDS011;21030;53.912;15.214;2022-07-22T04:48:15;5.65;;;2.85;;
34814;SDS011;21030;53.912;15.214;2022-07-22T04:50:43;6.45;;;3.53;;
34814;SDS011;21030;53.912;15.214;2022-07-22T04:53:10;7.60;;;3.15;;
34814;SDS011;21030;53.912;15.214;2022-07-22T04:55:38;15.15;;;3.67;;
34814;SDS011;21030;53.912;15.214;2022-07-22T04:58:05;5.80;;;2.90;;
34814;SDS011;21030;53.912;15.214;2022-07-22T05:00:40;7.45;;;3.70;;
34814;SDS011;21030;53.912;15.214;2022-07-22T05:03:07;7.78;;;2.63;;
34814;SDS011;21030;53.912;15.214;2022-07-22T05:05:34;5.13;;;2.33;;
34814;SDS011;21030;53.912;15.214;2022-07-22T05:08:01;6.85;;;2.97;;
34814;SDS011;21030;53.912;15.214;2022-07-22T05:10:28;7.90;;;2.70;;
34814;SDS011;21030;53.912;15.214;2022-07-22T05:12:55;16.92;;;3.60;;
34814;SDS011;21030;53.912;15.214;2022-07-22T05:15:23;9.10;;;3.60;;
34814;SDS011;21030;53.912;15.214;2022-07-22T05:17:50;11.80;;;3.22;;
34814;SDS011;21030;53.912;15.214;2022-07-22T05:20:17;4.55;;;3.15;;
34814;SDS011;21030;53.912;15.214;2022-07-22T05:22:44;6.55;;;3.17;;
34814;SDS011;21030;53.912;15.214;2022-07-22T05:25:11;5.00;;;3.03;;
34814;SDS011;21030;53.912;15.214;2022-07-22T05:27:38;6.60;;;2.20;;
34814;SDS011;21030;53.912;15.214;2022-07-22T05:30:15;7.05;;;3.67;;
34814;SDS011;21030;53.912;15.214;2022-07-22T05:32:49;5.63;;;3.20;;
34814;SDS011;21030;53.912;15.214;2022-07-22T05:35:16;5.78;;;3.08;;
34814;SDS011;21030;53.912;15.214;2022-07-22T05:37:43;5.40;;;2.65;;
34814;SDS011;21030;53.912;15.214;2022-07-22T05:40:10;4.45;;;2.38;;
34814;SDS011;21030;53.912;15.214;2022-07-22T05:42:38;6.75;;;3.17;;
34814;SDS011;21030;53.912;15.214;2022-07-22T05:45:05;4.35;;;2.05;;
34814;SDS011;21030;53.912;15.214;2022-07-22T05:47:33;7.97;;;2.90;;
34814;SDS011;21030;53.912;15.214;2022-07-22T05:50:00;4.50;;;2.28;;
34814;SDS011;21030;53.912;15.214;2022-07-22T05:52:27;4.78;;;2.45;;
34814;SDS011;21030;53.912;15.214;2022-07-22T05:54:54;7.20;;;3.25;;
34814;SDS011;21030;53.912;15.214;2022-07-22T05:57:21;3.70;;;2.25;;
34814;SDS011;21030;53.912;15.214;2022-07-22T05:59:49;6.38;;;2.33;;
34814;SDS011;21030;53.912;15.214;2022-07-22T06:02:16;8.55;;;3.00;;
34814;SDS011;21030;53.912;15.214;2022-07-22T06:04:44;5.82;;;2.75;;
34814;SDS011;21030;53.912;15.214;2022-07-22T06:07:11;5.05;;;2.42;;
34814;SDS011;21030;53.912;15.214;2022-07-22T06:09:38;6.25;;;2.63;;
34814;SDS011;21030;53.912;15.214;2022-07-22T06:12:05;19.67;;;2.63;;
34814;SDS011;21030;53.912;15.214;2022-07-22T06:14:32;7.07;;;3.58;;
34814;SDS011;21030;53.912;15.214;2022-07-22T06:17:00;3.47;;;2.33;;
34814;SDS011;21030;53.912;15.214;2022-07-22T06:19:27;6.55;;;2.88;;
34814;SDS011;21030;53.912;15.214;2022-07-22T06:21:55;5.05;;;2.25;;
34814;SDS011;21030;53.912;15.214;2022-07-22T06:24:23;6.72;;;2.83;;
34814;SDS011;21030;53.912;15.214;2022-07-22T06:26:51;8.10;;;3.40;;
34814;SDS011;21030;53.912;15.214;2022-07-22T06:29:18;3.35;;;2.22;;
34814;SDS011;21030;53.912;15.214;2022-07-22T06:31:45;8.40;;;2.78;;
34814;SDS011;21030;53.912;15.214;2022-07-22T06:34:13;5.63;;;2.80;;
34814;SDS011;21030;53.912;15.214;2022-07-22T06:36:40;3.08;;;2.08;;
34814;SDS011;21030;53.912;15.214;2022-07-22T06:39:07;3.58;;;2.08;;
34814;SDS011;21030;53.912;15.214;2022-07-22T06:41:34;2.90;;;2.05;;
34814;SDS011;21030;53.912;15.214;2022-07-22T06:44:02;5.45;;;1.95;;
34814;SDS011;21030;53.912;15.214;2022-07-22T06:46:29;3.38;;;1.88;;
34814;SDS011;21030;53.912;15.214;2022-07-22T06:48:57;5.28;;;2.30;;
34814;SDS011;21030;53.912;15.214;2022-07-22T06:51:25;3.70;;;2.05;;
34814;SDS011;21030;53.912;15.214;2022-07-22T06:53:52;3.72;;;2.17;;
34814;SDS011;21030;53.912;15.214;2022-07-22T06:56:20;7.65;;;2.72;;
34814;SDS011;21030;53.912;15.214;2022-07-22T06:58:47;4.28;;;2.72;;
34814;SDS011;21030;53.912;15.214;2022-07-22T07:01:14;5.18;;;2.40;;
34814;SDS011;21030;53.912;15.214;2022-07-22T07:03:41;8.30;;;2.67;;
34814;SDS011;21030;53.912;15.214;2022-07-22T07:06:08;8.68;;;4.40;;
34814;SDS011;21030;53.912;15.214;2022-07-22T07:08:38;7.40;;;3.80;;
34814;SDS011;21030;53.912;15.214;2022-07-22T07:11:06;4.93;;;3.25;;
34814;SDS011;21030;53.912;15.214;2022-07-22T07:13:34;5.65;;;3.28;;
34814;SDS011;21030;53.912;15.214;2022-07-22T07:16:01;5.13;;;3.10;;
34814;SDS011;21030;53.912;15.214;2022-07-22T07:18:28;7.90;;;2.95;;
34814;SDS011;21030;53.912;15.214;2022-07-22T07:20:55;4.80;;;3.05;;
34814;SDS011;21030;53.912;15.214;2022-07-22T07:23:22;11.70;;;5.03;;
34814;SDS011;21030;53.912;15.214;2022-07-22T07:25:50;4.78;;;2.90;;
34814;SDS011;21030;53.912;15.214;2022-07-22T07:28:19;6.53;;;3.35;;
34814;SDS011;21030;53.912;15.214;2022-07-22T07:30:46;4.93;;;3.20;;
34814;SDS011;21030;53.912;15.214;2022-07-22T07:33:15;7.75;;;3.92;;
34814;SDS011;21030;53.912;15.214;2022-07-22T07:35:42;5.07;;;2.67;;
34814;SDS011;21030;53.912;15.214;2022-07-22T07:38:09;3.50;;;2.15;;
34814;SDS011;21030;53.912;15.214;2022-07-22T07:40:37;5.93;;;3.22;;
34814;SDS011;21030;53.912;15.214;2022-07-22T07:43:04;4.55;;;3.03;;
34814;SDS011;21030;53.912;15.214;2022-07-22T07:45:32;6.55;;;2.63;;
34814;SDS011;21030;53.912;15.214;2022-07-22T07:47:59;6.97;;;2.88;;
34814;SDS011;21030;53.912;15.214;2022-07-22T07:50:27;4.03;;;2.47;;
34814;SDS011;21030;53.912;15.214;2022-07-22T07:52:54;4.78;;;2.42;;
34814;SDS011;21030;53.912;15.214;2022-07-22T07:55:22;4.07;;;2.38;;
34814;SDS011;21030;53.912;15.214;2022-07-22T07:57:50;9.60;;;2.28;;
34814;SDS011;21030;53.912;15.214;2022-07-22T08:00:18;6.72;;;2.83;;
34814;SDS011;21030;53.912;15.214;2022-07-22T08:02:49;2.95;;;1.85;;
34814;SDS011;21030;53.912;15.214;2022-07-22T08:05:17;5.03;;;3.33;;
34814;SDS011;21030;53.912;15.214;2022-07-22T08:07:47;7.40;;;2.75;;
34814;SDS011;21030;53.912;15.214;2022-07-22T08:10:15;5.90;;;2.90;;
34814;SDS011;21030;53.912;15.214;2022-07-22T08:13:03;5.97;;;2.47;;
34814;SDS011;21030;53.912;15.214;2022-07-22T08:15:31;6.10;;;2.55;;
34814;SDS011;21030;53.912;15.214;2022-07-22T08:17:58;3.40;;;2.25;;
34814;SDS011;21030;53.912;15.214;2022-07-22T08:20:26;5.72;;;2.65;;
34814;SDS011;21030;53.912;15.214;2022-07-22T08:22:54;3.58;;;2.15;;
34814;SDS011;21030;53.912;15.214;2022-07-22T08:25:22;4.93;;;2.45;;
34814;SDS011;21030;53.912;15.214;2022-07-22T08:27:49;5.85;;;2.90;;
34814;SDS011;21030;53.912;15.214;2022-07-22T08:30:17;3.45;;;1.98;;
34814;SDS011;21030;53.912;15.214;2022-07-22T08:32:45;4.55;;;3.17;;
34814;SDS011;21030;53.912;15.214;2022-07-22T08:35:12;3.67;;;2.10;;
34814;SDS011;21030;53.912;15.214;2022-07-22T08:37:39;6.30;;;2.85;;
34814;SDS011;21030;53.912;15.214;2022-07-22T08:40:07;6.22;;;2.85;;
34814;SDS011;21030;53.912;15.214;2022-07-22T08:42:39;7.03;;;2.75;;
34814;SDS011;21030;53.912;15.214;2022-07-22T08:45:07;4.97;;;2.97;;
34814;SDS011;21030;53.912;15.214;2022-07-22T08:47:46;4.95;;;3.08;;
34814;SDS011;21030;53.912;15.214;2022-07-22T08:50:15;4.95;;;2.50;;
34814;SDS011;21030;53.912;15.214;2022-07-22T08:52:42;7.38;;;3.47;;
34814;SDS011;21030;53.912;15.214;2022-07-22T08:55:10;14.00;;;3.40;;
34814;SDS011;21030;53.912;15.214;2022-07-22T08:57:37;8.93;;;2.83;;
34814;SDS011;21030;53.912;15.214;2022-07-22T09:00:10;6.93;;;3.00;;
34814;SDS011;21030;53.912;15.214;2022-07-22T09:02:40;3.05;;;1.95;;
34814;SDS011;21030;53.912;15.214;2022-07-22T09:05:10;9.15;;;3.15;;
34814;SDS011;21030;53.912;15.214;2022-07-22T09:08:00;6.53;;;3.45;;
34814;SDS011;21030;53.912;15.214;2022-07-22T09:10:31;3.58;;;1.92;;
34814;SDS011;21030;53.912;15.214;2022-07-22T09:13:01;5.13;;;2.72;;
34814;SDS011;21030;53.912;15.214;2022-07-22T09:15:32;4.68;;;2.58;;
34814;SDS011;21030;53.912;15.214;2022-07-22T09:18:04;5.97;;;2.88;;
34814;SDS011;21030;53.912;15.214;2022-07-22T09:20:34;4.28;;;2.00;;
34814;SDS011;21030;53.912;15.214;2022-07-22T09:23:09;5.38;;;2.83;;
34814;SDS011;21030;53.912;15.214;2022-07-22T09:25:38;3.10;;;2.05;;
34814;SDS011;21030;53.912;15.214;2022-07-22T09:30:40;4.47;;;2.83;;
34814;SDS011;21030;53.912;15.214;2022-07-22T09:33:20;5.90;;;2.20;;
34814;SDS011;21030;53.912;15.214;2022-07-22T09:35:48;4.38;;;2.67;;
34814;SDS011;21030;53.912;15.214;2022-07-22T09:38:17;4.35;;;1.90;;
34814;SDS011;21030;53.912;15.214;2022-07-22T09:40:47;9.93;;;2.15;;
34814;SDS011;21030;53.912;15.214;2022-07-22T09:43:16;4.40;;;2.50;;
34814;SDS011;21030;53.912;15.214;2022-07-22T09:48:16;3.95;;;2.25;;
34814;SDS011;21030;53.912;15.214;2022-07-22T09:50:45;6.65;;;2.35;;
34814;SDS011;21030;53.912;15.214;2022-07-22T09:53:13;3.10;;;1.90;;
34814;SDS011;21030;53.912;15.214;2022-07-22T09:55:42;4.70;;;1.75;;
34814;SDS011;21030;53.912;15.214;2022-07-22T09:58:10;3.63;;;1.90;;
34814;SDS011;21030;53.912;15.214;2022-07-22T10:00:39;3.20;;;2.17;;
34814;SDS011;21030;53.912;15.214;2022-07-22T10:03:10;2.85;;;1.63;;
34814;SDS011;21030;53.912;15.214;2022-07-22T10:05:42;2.30;;;1.38;;
34814;SDS011;21030;53.912;15.214;2022-07-22T10:08:09;8.48;;;2.53;;
34814;SDS011;21030;53.912;15.214;2022-07-22T10:10:37;4.50;;;1.67;;
34814;SDS011;21030;53.912;15.214;2022-07-22T10:13:06;2.15;;;1.33;;
34814;SDS011;21030;53.912;15.214;2022-07-22T10:15:34;2.38;;;1.70;;
34814;SDS011;21030;53.912;15.214;2022-07-22T10:18:08;3.83;;;1.60;;
34814;SDS011;21030;53.912;15.214;2022-07-22T10:20:43;1.65;;;1.10;;
34814;SDS011;21030;53.912;15.214;2022-07-22T10:23:11;3.20;;;1.48;;
34814;SDS011;21030;53.912;15.214;2022-07-22T10:28:22;2.53;;;1.45;;
34814;SDS011;21030;53.912;15.214;2022-07-22T10:36:36;3.20;;;1.95;;
34814;SDS011;21030;53.912;15.214;2022-07-22T10:39:06;2.35;;;1.80;;
34814;SDS011;21030;53.912;15.214;2022-07-22T10:41:42;3.13;;;1.40;;
34814;SDS011;21030;53.912;15.214;2022-07-22T10:44:46;3.65;;;1.85;;
34814;SDS011;21030;53.912;15.214;2022-07-22T10:53:02;2.97;;;1.83;;
34814;SDS011;21030;53.912;15.214;2022-07-22T10:55:33;2.78;;;1.73;;
34814;SDS011;21030;53.912;15.214;2022-07-22T10:58:30;3.08;;;1.50;;
34814;SDS011;21030;53.912;15.214;2022-07-22T11:01:00;1.95;;;1.25;;
34814;SDS011;21030;53.912;15.214;2022-07-22T11:03:29;3.33;;;1.65;;
34814;SDS011;21030;53.912;15.214;2022-07-22T11:06:12;4.47;;;2.03;;
34814;SDS011;21030;53.912;15.214;2022-07-22T11:08:39;2.28;;;1.38;;
34814;SDS011;21030;53.912;15.214;2022-07-22T11:11:07;2.30;;;1.38;;
34814;SDS011;21030;53.912;15.214;2022-07-22T11:13:35;3.20;;;1.88;;
34814;SDS011;21030;53.912;15.214;2022-07-22T11:16:23;3.97;;;1.42;;
34814;SDS011;21030;53.912;15.214;2022-07-22T11:18:58;3.15;;;1.23;;
34814;SDS011;21030;53.912;15.214;2022-07-22T11:21:27;3.78;;;1.75;;
34814;SDS011;21030;53.912;15.214;2022-07-22T11:23:57;2.65;;;1.40;;
34814;SDS011;21030;53.912;15.214;2022-07-22T11:26:43;7.15;;;1.58;;
34814;SDS011;21030;53.912;15.214;2022-07-22T11:29:18;4.40;;;1.55;;
34814;SDS011;21030;53.912;15.214;2022-07-22T11:31:52;2.85;;;1.15;;
34814;SDS011;21030;53.912;15.214;2022-07-22T11:34:20;3.05;;;1.17;;
34814;SDS011;21030;53.912;15.214;2022-07-22T11:36:48;2.95;;;1.75;;
34814;SDS011;21030;53.912;15.214;2022-07-22T11:39:23;3.67;;;1.75;;
34814;SDS011;21030;53.912;15.214;2022-07-22T11:41:53;2.50;;;1.27;;
34814;SDS011;21030;53.912;15.214;2022-07-22T11:44:23;1.65;;;1.15;;
34814;SDS011;21030;53.912;15.214;2022-07-22T11:49:25;3.33;;;1.98;;
34814;SDS011;21030;53.912;15.214;2022-07-22T11:51:56;3.15;;;0.90;;
34814;SDS011;21030;53.912;15.214;2022-07-22T11:54:23;2.08;;;1.27;;
34814;SDS011;21030;53.912;15.214;2022-07-22T11:56:50;2.75;;;1.38;;
34814;SDS011;21030;53.912;15.214;2022-07-22T11:59:22;0.50;;;0.47;;
34814;SDS011;21030;53.912;15.214;2022-07-22T12:01:50;1.95;;;0.80;;
34814;SDS011;21030;53.912;15.214;2022-07-22T12:04:18;1.67;;;0.88;;
34814;SDS011;21030;53.912;15.214;2022-07-22T12:06:47;0.90;;;0.65;;
34814;SDS011;21030;53.912;15.214;2022-07-22T12:09:16;0.77;;;0.68;;
34814;SDS011;21030;53.912;15.214;2022-07-22T12:11:52;1.55;;;0.65;;
34814;SDS011;21030;53.912;15.214;2022-07-22T12:14:25;1.45;;;0.85;;
34814;SDS011;21030;53.912;15.214;2022-07-22T12:17:04;1.00;;;0.40;;
34814;SDS011;21030;53.912;15.214;2022-07-22T12:19:39;0.60;;;0.52;;
34814;SDS011;21030;53.912;15.214;2022-07-22T12:24:39;0.45;;;0.30;;
34814;SDS011;21030;53.912;15.214;2022-07-22T12:27:11;3.58;;;0.93;;
34814;SDS011;21030;53.912;15.214;2022-07-22T12:32:10;0.38;;;0.30;;
34814;SDS011;21030;53.912;15.214;2022-07-22T12:34:42;2.50;;;0.70;;
34814;SDS011;21030;53.912;15.214;2022-07-22T12:40:06;0.90;;;0.47;;
34814;SDS011;21030;53.912;15.214;2022-07-22T12:42:35;0.80;;;0.50;;
34814;SDS011;21030;53.912;15.214;2022-07-22T12:45:11;1.05;;;0.90;;
34814;SDS011;21030;53.912;15.214;2022-07-22T12:50:59;1.90;;;0.88;;
34814;SDS011;21030;53.912;15.214;2022-07-22T12:55:45;1.25;;;0.77;;
34814;SDS011;21030;53.912;15.214;2022-07-22T12:58:14;1.10;;;0.73;;
34814;SDS011;21030;53.912;15.214;2022-07-22T13:00:49;1.98;;;0.93;;
34814;SDS011;21030;53.912;15.214;2022-07-22T13:03:18;1.45;;;0.50;;
34814;SDS011;21030;53.912;15.214;2022-07-22T13:05:47;0.60;;;0.50;;
34814;SDS011;21030;53.912;15.214;2022-07-22T13:08:18;1.25;;;0.60;;
34814;SDS011;21030;53.912;15.214;2022-07-22T13:10:47;1.50;;;0.60;;
34814;SDS011;21030;53.912;15.214;2022-07-22T13:13:19;3.50;;;0.95;;
34814;SDS011;21030;53.912;15.214;2022-07-22T13:15:47;1.05;;;0.60;;
34814;SDS011;21030;53.912;15.214;2022-07-22T13:18:14;0.95;;;0.73;;
34814;SDS011;21030;53.912;15.214;2022-07-22T13:20:41;0.80;;;0.55;;
34814;SDS011;21030;53.912;15.214;2022-07-22T13:23:08;1.42;;;0.75;;
34814;SDS011;21030;53.912;15.214;2022-07-22T13:25:35;1.92;;;0.75;;
34814;SDS011;21030;53.912;15.214;2022-07-22T13:28:03;0.73;;;0.50;;
34814;SDS011;21030;53.912;15.214;2022-07-22T13:30:30;4.40;;;1.15;;
34814;SDS011;21030;53.912;15.214;2022-07-22T13:32:57;1.52;;;0.82;;
34814;SDS011;21030;53.912;15.214;2022-07-22T13:35:24;2.97;;;1.33;;
34814;SDS011;21030;53.912;15.214;2022-07-22T13:37:53;0.82;;;0.60;;
34814;SDS011;21030;53.912;15.214;2022-07-22T13:40:20;0.93;;;0.63;;
34814;SDS011;21030;53.912;15.214;2022-07-22T13:42:47;1.23;;;0.77;;
34814;SDS011;21030;53.912;15.214;2022-07-22T13:45:15;1.50;;;0.98;;
34814;SDS011;21030;53.912;15.214;2022-07-22T13:47:44;1.65;;;0.85;;
34814;SDS011;21030;53.912;15.214;2022-07-22T13:50:11;0.98;;;0.63;;
34814;SDS011;21030;53.912;15.214;2022-07-22T13:52:38;1.65;;;1.13;;
34814;SDS011;21030;53.912;15.214;2022-07-22T13:55:06;0.52;;;0.40;;
34814;SDS011;21030;53.912;15.214;2022-07-22T13:57:33;0.47;;;0.32;;
34814;SDS011;21030;53.912;15.214;2022-07-22T14:00:02;1.10;;;0.30;;
34814;SDS011;21030;53.912;15.214;2022-07-22T14:02:37;0.82;;;0.43;;
34814;SDS011;21030;53.912;15.214;2022-07-22T14:05:05;0.43;;;0.35;;
34814;SDS011;21030;53.912;15.214;2022-07-22T14:07:32;1.17;;;0.73;;
34814;SDS011;21030;53.912;15.214;2022-07-22T14:09:59;1.13;;;0.55;;
34814;SDS011;21030;53.912;15.214;2022-07-22T14:12:26;0.60;;;0.40;;
34814;SDS011;21030;53.912;15.214;2022-07-22T14:14:53;0.75;;;0.52;;
34814;SDS011;21030;53.912;15.214;2022-07-22T14:17:20;2.42;;;0.57;;
34814;SDS011;21030;53.912;15.214;2022-07-22T14:19:51;1.15;;;0.60;;
34814;SDS011;21030;53.912;15.214;2022-07-22T14:22:25;1.23;;;0.50;;
34814;SDS011;21030;53.912;15.214;2022-07-22T14:24:53;1.60;;;0.70;;
34814;SDS011;21030;53.912;15.214;2022-07-22T14:27:23;0.90;;;0.50;;
34814;SDS011;21030;53.912;15.214;2022-07-22T14:29:50;1.20;;;0.63;;
34814;SDS011;21030;53.912;15.214;2022-07-22T14:32:17;1.55;;;0.63;;
34814;SDS011;21030;53.912;15.214;2022-07-22T14:34:45;4.78;;;0.90;;
34814;SDS011;21030;53.912;15.214;2022-07-22T14:37:12;0.57;;;0.30;;
34814;SDS011;21030;53.912;15.214;2022-07-22T14:39:39;0.55;;;0.47;;
34814;SDS011;21030;53.912;15.214;2022-07-22T14:42:06;1.45;;;0.50;;
34814;SDS011;21030;53.912;15.214;2022-07-22T14:44:33;2.67;;;0.60;;
34814;SDS011;21030;53.912;15.214;2022-07-22T14:47:00;1.75;;;0.65;;
34814;SDS011;21030;53.912;15.214;2022-07-22T14:49:29;1.48;;;0.70;;
34814;SDS011;21030;53.912;15.214;2022-07-22T14:51:56;1.55;;;0.95;;
34814;SDS011;21030;53.912;15.214;2022-07-22T14:54:23;15.68;;;1.50;;
34814;SDS011;21030;53.912;15.214;2022-07-22T14:56:50;0.60;;;0.50;;
34814;SDS011;21030;53.912;15.214;2022-07-22T14:59:17;1.02;;;0.47;;
34814;SDS011;21030;53.912;15.214;2022-07-22T15:01:44;1.02;;;0.93;;
34814;SDS011;21030;53.912;15.214;2022-07-22T15:04:11;2.75;;;0.93;;
34814;SDS011;21030;53.912;15.214;2022-07-22T15:06:38;1.77;;;0.70;;
34814;SDS011;21030;53.912;15.214;2022-07-22T15:09:05;3.88;;;0.60;;
34814;SDS011;21030;53.912;15.214;2022-07-22T15:11:32;2.15;;;1.33;;
34814;SDS011;21030;53.912;15.214;2022-07-22T15:14:00;2.53;;;1.45;;
34814;SDS011;21030;53.912;15.214;2022-07-22T15:16:27;1.05;;;0.60;;